Haltom City, Texas
Current Conditions -  °F | °C
As of 1:53 AM on Friday 19 Dec 2014 (Local Time) from KFTW Reporting Station
Haze Haze  
Wind Chill: 41°   Ceiling: 600
Heat Index: 46°   Visibility: 5mi
Dew Point: 43°   Wind: 10mph
Humidity: 89%   Direction: 40°NE
Pressure: 30.14"   Gusts: NA
Location:  32.81°N, 97.27°W
Report Text: KFTW 190753Z 04009KT 5SM BR OVC006 08/06 A3014 RMK AO2 SLP206 T00780061
Loading
Personal Weather Stations






























Interactive Weather Map New forecast layout! Learn more

10-Day Weather Forecast

Advertisements
Track Severe Weather on mobile